sensor_id;sensor_type;location;lat;lon;timestamp;P1;durP1;ratioP1;P2;durP2;ratioP2
33579;SDS011;19909;43.644;-79.438;2024-01-10T00:00:29;1.10;;;0.55;;
33579;SDS011;19909;43.644;-79.438;2024-01-10T00:02:55;0.32;;;0.32;;
33579;SDS011;19909;43.644;-79.438;2024-01-10T00:05:22;0.45;;;0.38;;
33579;SDS011;19909;43.644;-79.438;2024-01-10T00:07:49;1.17;;;0.50;;
33579;SDS011;19909;43.644;-79.438;2024-01-10T00:10:19;1.27;;;0.38;;
33579;SDS011;19909;43.644;-79.438;2024-01-10T00:12:49;3.00;;;0.40;;
33579;SDS011;19909;43.644;-79.438;2024-01-10T00:15:16;1.42;;;0.50;;
33579;SDS011;19909;43.644;-79.438;2024-01-10T00:17:42;0.73;;;0.30;;
33579;SDS011;19909;43.644;-79.438;2024-01-10T00:20:08;1.20;;;0.65;;
33579;SDS011;19909;43.644;-79.438;2024-01-10T00:22:34;0.57;;;0.38;;
33579;SDS011;19909;43.644;-79.438;2024-01-10T00:25:01;1.95;;;0.73;;
33579;SDS011;19909;43.644;-79.438;2024-01-10T00:27:27;1.33;;;0.30;;
33579;SDS011;19909;43.644;-79.438;2024-01-10T00:29:53;0.65;;;0.28;;
33579;SDS011;19909;43.644;-79.438;2024-01-10T00:32:22;1.20;;;0.50;;
33579;SDS011;19909;43.644;-79.438;2024-01-10T00:34:48;1.58;;;0.40;;
33579;SDS011;19909;43.644;-79.438;2024-01-10T00:37:14;0.30;;;0.20;;
33579;SDS011;19909;43.644;-79.438;2024-01-10T00:39:41;0.70;;;0.40;;
33579;SDS011;19909;43.644;-79.438;2024-01-10T00:42:07;1.13;;;0.52;;
33579;SDS011;19909;43.644;-79.438;2024-01-10T00:44:33;1.98;;;0.98;;
33579;SDS011;19909;43.644;-79.438;2024-01-10T00:47:00;2.75;;;1.65;;
33579;SDS011;19909;43.644;-79.438;2024-01-10T00:49:26;2.58;;;1.83;;
33579;SDS011;19909;43.644;-79.438;2024-01-10T00:51:52;2.10;;;1.35;;
33579;SDS011;19909;43.644;-79.438;2024-01-10T00:54:19;2.40;;;1.00;;
33579;SDS011;19909;43.644;-79.438;2024-01-10T00:56:45;2.17;;;1.38;;
33579;SDS011;19909;43.644;-79.438;2024-01-10T00:59:12;1.42;;;1.02;;
33579;SDS011;19909;43.644;-79.438;2024-01-10T01:01:39;1.67;;;1.10;;
33579;SDS011;19909;43.644;-79.438;2024-01-10T01:04:05;1.42;;;0.88;;
33579;SDS011;19909;43.644;-79.438;2024-01-10T01:06:31;1.67;;;0.98;;
33579;SDS011;19909;43.644;-79.438;2024-01-10T01:08:57;1.58;;;0.80;;
33579;SDS011;19909;43.644;-79.438;2024-01-10T01:11:24;1.30;;;0.70;;
33579;SDS011;19909;43.644;-79.438;2024-01-10T01:13:50;2.05;;;0.50;;
33579;SDS011;19909;43.644;-79.438;2024-01-10T01:16:16;0.93;;;0.63;;
33579;SDS011;19909;43.644;-79.438;2024-01-10T01:18:42;0.63;;;0.40;;
33579;SDS011;19909;43.644;-79.438;2024-01-10T01:21:12;0.60;;;0.30;;
33579;SDS011;19909;43.644;-79.438;2024-01-10T01:23:41;0.30;;;0.20;;
33579;SDS011;19909;43.644;-79.438;2024-01-10T01:26:08;0.30;;;0.20;;
33579;SDS011;19909;43.644;-79.438;2024-01-10T01:28:34;0.98;;;0.30;;
33579;SDS011;19909;43.644;-79.438;2024-01-10T01:31:01;0.50;;;0.30;;
33579;SDS011;19909;43.644;-79.438;2024-01-10T01:33:27;0.70;;;0.30;;
33579;SDS011;19909;43.644;-79.438;2024-01-10T01:35:53;0.30;;;0.22;;
33579;SDS011;19909;43.644;-79.438;2024-01-10T01:38:19;0.95;;;0.25;;
33579;SDS011;19909;43.644;-79.438;2024-01-10T01:40:46;0.57;;;0.28;;
33579;SDS011;19909;43.644;-79.438;2024-01-10T01:43:23;0.30;;;0.20;;
33579;SDS011;19909;43.644;-79.438;2024-01-10T01:45:51;0.73;;;0.30;;
33579;SDS011;19909;43.644;-79.438;2024-01-10T01:48:22;0.45;;;0.30;;
33579;SDS011;19909;43.644;-79.438;2024-01-10T01:50:57;0.40;;;0.30;;
33579;SDS011;19909;43.644;-79.438;2024-01-10T01:53:30;0.55;;;0.30;;
33579;SDS011;19909;43.644;-79.438;2024-01-10T01:55:57;0.55;;;0.35;;
33579;SDS011;19909;43.644;-79.438;2024-01-10T01:58:29;0.47;;;0.30;;
33579;SDS011;19909;43.644;-79.438;2024-01-10T02:00:55;0.32;;;0.22;;
33579;SDS011;19909;43.644;-79.438;2024-01-10T02:03:21;0.50;;;0.20;;
33579;SDS011;19909;43.644;-79.438;2024-01-10T02:05:48;0.30;;;0.10;;
33579;SDS011;19909;43.644;-79.438;2024-01-10T02:08:15;0.32;;;0.20;;
33579;SDS011;19909;43.644;-79.438;2024-01-10T02:10:41;0.98;;;0.30;;
33579;SDS011;19909;43.644;-79.438;2024-01-10T02:13:07;0.98;;;0.30;;
33579;SDS011;19909;43.644;-79.438;2024-01-10T02:15:37;0.77;;;0.43;;
33579;SDS011;19909;43.644;-79.438;2024-01-10T02:18:03;0.47;;;0.22;;
33579;SDS011;19909;43.644;-79.438;2024-01-10T02:20:32;0.73;;;0.10;;
33579;SDS011;19909;43.644;-79.438;2024-01-10T02:22:59;0.52;;;0.20;;
33579;SDS011;19909;43.644;-79.438;2024-01-10T02:25:25;0.28;;;0.10;;
33579;SDS011;19909;43.644;-79.438;2024-01-10T02:27:51;0.40;;;0.28;;
33579;SDS011;19909;43.644;-79.438;2024-01-10T02:30:17;0.50;;;0.20;;
33579;SDS011;19909;43.644;-79.438;2024-01-10T02:32:45;0.60;;;0.20;;
33579;SDS011;19909;43.644;-79.438;2024-01-10T02:35:12;0.45;;;0.22;;
33579;SDS011;19909;43.644;-79.438;2024-01-10T02:37:38;0.28;;;0.13;;
33579;SDS011;19909;43.644;-79.438;2024-01-10T02:40:04;2.25;;;0.10;;
33579;SDS011;19909;43.644;-79.438;2024-01-10T02:42:31;0.10;;;0.10;;
33579;SDS011;19909;43.644;-79.438;2024-01-10T02:44:57;0.10;;;0.10;;
33579;SDS011;19909;43.644;-79.438;2024-01-10T02:47:24;0.52;;;0.17;;
33579;SDS011;19909;43.644;-79.438;2024-01-10T02:49:51;0.28;;;0.10;;
33579;SDS011;19909;43.644;-79.438;2024-01-10T02:52:17;0.30;;;0.10;;
33579;SDS011;19909;43.644;-79.438;2024-01-10T02:54:45;0.22;;;0.22;;
33579;SDS011;19909;43.644;-79.438;2024-01-10T02:57:11;0.22;;;0.10;;
33579;SDS011;19909;43.644;-79.438;2024-01-10T02:59:38;0.50;;;0.15;;
33579;SDS011;19909;43.644;-79.438;2024-01-10T03:02:04;0.47;;;0.10;;
33579;SDS011;19909;43.644;-79.438;2024-01-10T03:04:30;0.20;;;0.20;;
33579;SDS011;19909;43.644;-79.438;2024-01-10T03:06:57;0.50;;;0.20;;
33579;SDS011;19909;43.644;-79.438;2024-01-10T03:09:23;0.55;;;0.20;;
33579;SDS011;19909;43.644;-79.438;2024-01-10T03:11:49;0.85;;;0.40;;
33579;SDS011;19909;43.644;-79.438;2024-01-10T03:14:16;1.08;;;0.60;;
33579;SDS011;19909;43.644;-79.438;2024-01-10T03:16:42;0.60;;;0.35;;
33579;SDS011;19909;43.644;-79.438;2024-01-10T03:19:10;1.15;;;0.40;;
33579;SDS011;19909;43.644;-79.438;2024-01-10T03:21:36;1.02;;;0.60;;
33579;SDS011;19909;43.644;-79.438;2024-01-10T03:24:02;1.50;;;0.63;;
33579;SDS011;19909;43.644;-79.438;2024-01-10T03:26:28;0.32;;;0.30;;
33579;SDS011;19909;43.644;-79.438;2024-01-10T03:28:57;0.43;;;0.30;;
33579;SDS011;19909;43.644;-79.438;2024-01-10T03:31:23;1.15;;;0.68;;
33579;SDS011;19909;43.644;-79.438;2024-01-10T03:33:51;2.55;;;1.40;;
33579;SDS011;19909;43.644;-79.438;2024-01-10T03:36:17;1.70;;;1.20;;
33579;SDS011;19909;43.644;-79.438;2024-01-10T03:38:44;1.50;;;1.17;;
33579;SDS011;19909;43.644;-79.438;2024-01-10T03:41:14;1.90;;;1.17;;
33579;SDS011;19909;43.644;-79.438;2024-01-10T03:43:42;1.10;;;1.00;;
33579;SDS011;19909;43.644;-79.438;2024-01-10T03:46:08;1.17;;;0.90;;
33579;SDS011;19909;43.644;-79.438;2024-01-10T03:48:35;1.40;;;0.95;;
33579;SDS011;19909;43.644;-79.438;2024-01-10T03:51:02;1.02;;;0.68;;
33579;SDS011;19909;43.644;-79.438;2024-01-10T03:53:29;0.73;;;0.60;;
33579;SDS011;19909;43.644;-79.438;2024-01-10T03:55:57;1.13;;;0.82;;
33579;SDS011;19909;43.644;-79.438;2024-01-10T03:58:23;0.98;;;0.80;;
33579;SDS011;19909;43.644;-79.438;2024-01-10T04:00:51;0.68;;;0.50;;
33579;SDS011;19909;43.644;-79.438;2024-01-10T04:03:17;1.00;;;0.60;;
33579;SDS011;19909;43.644;-79.438;2024-01-10T04:05:44;0.60;;;0.35;;
33579;SDS011;19909;43.644;-79.438;2024-01-10T04:08:10;0.85;;;0.50;;
33579;SDS011;19909;43.644;-79.438;2024-01-10T04:10:36;0.30;;;0.25;;
33579;SDS011;19909;43.644;-79.438;2024-01-10T04:13:03;0.82;;;0.30;;
33579;SDS011;19909;43.644;-79.438;2024-01-10T04:15:29;0.57;;;0.32;;
33579;SDS011;19909;43.644;-79.438;2024-01-10T04:17:56;0.82;;;0.30;;
33579;SDS011;19909;43.644;-79.438;2024-01-10T04:20:22;0.28;;;0.20;;
33579;SDS011;19909;43.644;-79.438;2024-01-10T04:22:48;0.60;;;0.20;;
33579;SDS011;19909;43.644;-79.438;2024-01-10T04:25:15;0.32;;;0.20;;
33579;SDS011;19909;43.644;-79.438;2024-01-10T04:27:41;1.00;;;0.30;;
33579;SDS011;19909;43.644;-79.438;2024-01-10T04:30:07;0.20;;;0.20;;
33579;SDS011;19909;43.644;-79.438;2024-01-10T04:32:34;1.92;;;0.40;;
33579;SDS011;19909;43.644;-79.438;2024-01-10T04:35:00;0.15;;;0.13;;
33579;SDS011;19909;43.644;-79.438;2024-01-10T04:37:26;0.60;;;0.40;;
33579;SDS011;19909;43.644;-79.438;2024-01-10T04:39:52;0.57;;;0.28;;
33579;SDS011;19909;43.644;-79.438;2024-01-10T04:42:18;0.63;;;0.20;;
33579;SDS011;19909;43.644;-79.438;2024-01-10T04:44:45;0.22;;;0.20;;
33579;SDS011;19909;43.644;-79.438;2024-01-10T04:47:11;0.20;;;0.13;;
33579;SDS011;19909;43.644;-79.438;2024-01-10T04:49:37;0.55;;;0.45;;
33579;SDS011;19909;43.644;-79.438;2024-01-10T04:52:03;0.90;;;0.20;;
33579;SDS011;19909;43.644;-79.438;2024-01-10T04:54:32;0.32;;;0.20;;
33579;SDS011;19909;43.644;-79.438;2024-01-10T04:56:59;0.20;;;0.10;;
33579;SDS011;19909;43.644;-79.438;2024-01-10T04:59:26;0.30;;;0.20;;
33579;SDS011;19909;43.644;-79.438;2024-01-10T05:01:52;0.32;;;0.13;;
33579;SDS011;19909;43.644;-79.438;2024-01-10T05:04:19;0.10;;;0.10;;
33579;SDS011;19909;43.644;-79.438;2024-01-10T05:06:45;0.60;;;0.20;;
33579;SDS011;19909;43.644;-79.438;2024-01-10T05:09:11;0.20;;;0.10;;
33579;SDS011;19909;43.644;-79.438;2024-01-10T05:11:39;0.57;;;0.30;;
33579;SDS011;19909;43.644;-79.438;2024-01-10T05:14:05;0.25;;;0.15;;
33579;SDS011;19909;43.644;-79.438;2024-01-10T05:16:31;0.30;;;0.20;;
33579;SDS011;19909;43.644;-79.438;2024-01-10T05:19:00;0.35;;;0.20;;
33579;SDS011;19909;43.644;-79.438;2024-01-10T05:21:29;0.40;;;0.20;;
33579;SDS011;19909;43.644;-79.438;2024-01-10T05:23:56;1.98;;;0.45;;
33579;SDS011;19909;43.644;-79.438;2024-01-10T05:28:52;0.30;;;0.20;;
33579;SDS011;19909;43.644;-79.438;2024-01-10T05:31:19;0.57;;;0.20;;
33579;SDS011;19909;43.644;-79.438;2024-01-10T05:33:45;0.70;;;0.30;;
33579;SDS011;19909;43.644;-79.438;2024-01-10T05:36:12;0.17;;;0.10;;
33579;SDS011;19909;43.644;-79.438;2024-01-10T05:38:38;0.10;;;0.10;;
33579;SDS011;19909;43.644;-79.438;2024-01-10T05:41:05;0.20;;;0.10;;
33579;SDS011;19909;43.644;-79.438;2024-01-10T05:43:31;0.65;;;0.10;;
33579;SDS011;19909;43.644;-79.438;2024-01-10T05:45:58;0.32;;;0.20;;
33579;SDS011;19909;43.644;-79.438;2024-01-10T05:48:25;0.45;;;0.10;;
33579;SDS011;19909;43.644;-79.438;2024-01-10T05:50:52;0.20;;;0.10;;
33579;SDS011;19909;43.644;-79.438;2024-01-10T05:53:18;0.43;;;0.20;;
33579;SDS011;19909;43.644;-79.438;2024-01-10T05:55:44;0.40;;;0.10;;
33579;SDS011;19909;43.644;-79.438;2024-01-10T05:58:10;0.47;;;0.20;;
33579;SDS011;19909;43.644;-79.438;2024-01-10T06:00:37;1.00;;;0.15;;
33579;SDS011;19909;43.644;-79.438;2024-01-10T06:03:03;0.15;;;0.10;;
33579;SDS011;19909;43.644;-79.438;2024-01-10T06:05:30;1.33;;;0.20;;
33579;SDS011;19909;43.644;-79.438;2024-01-10T06:07:57;0.40;;;0.10;;
33579;SDS011;19909;43.644;-79.438;2024-01-10T06:10:23;0.10;;;0.05;;
33579;SDS011;19909;43.644;-79.438;2024-01-10T06:12:49;0.40;;;0.20;;
33579;SDS011;19909;43.644;-79.438;2024-01-10T06:15:20;0.20;;;0.10;;
33579;SDS011;19909;43.644;-79.438;2024-01-10T06:17:54;0.28;;;0.05;;
33579;SDS011;19909;43.644;-79.438;2024-01-10T06:20:20;0.05;;;0.00;;
33579;SDS011;19909;43.644;-79.438;2024-01-10T06:22:46;0.30;;;0.10;;
33579;SDS011;19909;43.644;-79.438;2024-01-10T06:25:12;0.03;;;0.03;;
33579;SDS011;19909;43.644;-79.438;2024-01-10T06:27:39;0.15;;;0.03;;
33579;SDS011;19909;43.644;-79.438;2024-01-10T06:30:06;0.30;;;0.10;;
33579;SDS011;19909;43.644;-79.438;2024-01-10T06:32:33;0.65;;;0.32;;
33579;SDS011;19909;43.644;-79.438;2024-01-10T06:35:00;0.52;;;0.20;;
33579;SDS011;19909;43.644;-79.438;2024-01-10T06:37:27;0.38;;;0.10;;
33579;SDS011;19909;43.644;-79.438;2024-01-10T06:39:56;1.27;;;0.30;;
33579;SDS011;19909;43.644;-79.438;2024-01-10T06:42:22;0.50;;;0.20;;
33579;SDS011;19909;43.644;-79.438;2024-01-10T06:44:48;0.63;;;0.20;;
33579;SDS011;19909;43.644;-79.438;2024-01-10T06:47:14;0.20;;;0.10;;
33579;SDS011;19909;43.644;-79.438;2024-01-10T06:49:41;0.30;;;0.20;;
33579;SDS011;19909;43.644;-79.438;2024-01-10T06:52:07;0.10;;;0.10;;
33579;SDS011;19909;43.644;-79.438;2024-01-10T06:54:33;0.10;;;0.10;;
33579;SDS011;19909;43.644;-79.438;2024-01-10T06:57:00;0.20;;;0.10;;
33579;SDS011;19909;43.644;-79.438;2024-01-10T06:59:27;0.30;;;0.10;;
33579;SDS011;19909;43.644;-79.438;2024-01-10T07:01:54;0.10;;;0.00;;
33579;SDS011;19909;43.644;-79.438;2024-01-10T07:04:24;0.10;;;0.00;;
33579;SDS011;19909;43.644;-79.438;2024-01-10T07:06:51;0.20;;;0.08;;
33579;SDS011;19909;43.644;-79.438;2024-01-10T07:09:17;0.17;;;0.13;;
33579;SDS011;19909;43.644;-79.438;2024-01-10T07:11:47;0.10;;;0.00;;
33579;SDS011;19909;43.644;-79.438;2024-01-10T07:14:14;0.10;;;0.10;;
33579;SDS011;19909;43.644;-79.438;2024-01-10T07:16:41;0.85;;;0.17;;
33579;SDS011;19909;43.644;-79.438;2024-01-10T07:19:11;0.40;;;0.17;;
33579;SDS011;19909;43.644;-79.438;2024-01-10T07:24:08;0.70;;;0.20;;
33579;SDS011;19909;43.644;-79.438;2024-01-10T07:26:36;0.10;;;0.00;;
33579;SDS011;19909;43.644;-79.438;2024-01-10T07:29:02;0.95;;;0.10;;
33579;SDS011;19909;43.644;-79.438;2024-01-10T07:31:29;0.22;;;0.10;;
33579;SDS011;19909;43.644;-79.438;2024-01-10T07:33:56;0.20;;;0.08;;
33579;SDS011;19909;43.644;-79.438;2024-01-10T07:36:24;0.45;;;0.10;;
33579;SDS011;19909;43.644;-79.438;2024-01-10T07:38:56;0.40;;;0.03;;
33579;SDS011;19909;43.644;-79.438;2024-01-10T07:41:24;0.20;;;0.00;;
33579;SDS011;19909;43.644;-79.438;2024-01-10T07:43:51;0.20;;;0.10;;
33579;SDS011;19909;43.644;-79.438;2024-01-10T07:46:17;0.13;;;0.00;;
33579;SDS011;19909;43.644;-79.438;2024-01-10T07:48:43;0.30;;;0.10;;
33579;SDS011;19909;43.644;-79.438;2024-01-10T07:51:10;0.20;;;0.03;;
33579;SDS011;19909;43.644;-79.438;2024-01-10T07:53:36;0.10;;;0.00;;
33579;SDS011;19909;43.644;-79.438;2024-01-10T07:56:03;0.00;;;0.00;;
33579;SDS011;19909;43.644;-79.438;2024-01-10T07:58:30;0.35;;;0.05;;
33579;SDS011;19909;43.644;-79.438;2024-01-10T08:00:56;0.10;;;0.00;;
33579;SDS011;19909;43.644;-79.438;2024-01-10T08:03:23;0.10;;;0.00;;
33579;SDS011;19909;43.644;-79.438;2024-01-10T08:05:49;0.13;;;0.00;;
33579;SDS011;19909;43.644;-79.438;2024-01-10T08:08:15;1.25;;;0.00;;
33579;SDS011;19909;43.644;-79.438;2024-01-10T08:10:42;1.45;;;0.13;;
33579;SDS011;19909;43.644;-79.438;2024-01-10T08:13:08;0.10;;;0.00;;
33579;SDS011;19909;43.644;-79.438;2024-01-10T08:15:35;0.10;;;0.03;;
33579;SDS011;19909;43.644;-79.438;2024-01-10T08:18:01;0.43;;;0.00;;
33579;SDS011;19909;43.644;-79.438;2024-01-10T08:20:32;0.10;;;0.00;;
33579;SDS011;19909;43.644;-79.438;2024-01-10T08:22:58;0.00;;;0.00;;
33579;SDS011;19909;43.644;-79.438;2024-01-10T08:25:25;0.50;;;0.00;;
33579;SDS011;19909;43.644;-79.438;2024-01-10T08:27:52;0.10;;;0.00;;
33579;SDS011;19909;43.644;-79.438;2024-01-10T08:30:20;0.32;;;0.10;;
33579;SDS011;19909;43.644;-79.438;2024-01-10T08:32:47;0.10;;;0.00;;
33579;SDS011;19909;43.644;-79.438;2024-01-10T08:35:13;0.10;;;0.00;;
33579;SDS011;19909;43.644;-79.438;2024-01-10T08:37:40;0.00;;;0.00;;
33579;SDS011;19909;43.644;-79.438;2024-01-10T08:40:12;0.95;;;0.10;;
33579;SDS011;19909;43.644;-79.438;2024-01-10T08:42:41;0.00;;;0.00;;
33579;SDS011;19909;43.644;-79.438;2024-01-10T08:45:08;0.20;;;0.00;;
33579;SDS011;19909;43.644;-79.438;2024-01-10T08:47:36;0.10;;;0.00;;
33579;SDS011;19909;43.644;-79.438;2024-01-10T08:50:03;0.30;;;0.08;;
33579;SDS011;19909;43.644;-79.438;2024-01-10T08:52:34;0.10;;;0.10;;
33579;SDS011;19909;43.644;-79.438;2024-01-10T08:55:03;0.57;;;0.00;;
33579;SDS011;19909;43.644;-79.438;2024-01-10T08:57:33;0.10;;;0.00;;
33579;SDS011;19909;43.644;-79.438;2024-01-10T08:59:59;0.10;;;0.10;;
33579;SDS011;19909;43.644;-79.438;2024-01-10T09:02:25;1.30;;;0.10;;
33579;SDS011;19909;43.644;-79.438;2024-01-10T09:04:53;0.98;;;0.10;;
33579;SDS011;19909;43.644;-79.438;2024-01-10T09:07:20;0.30;;;0.13;;
33579;SDS011;19909;43.644;-79.438;2024-01-10T09:09:48;0.10;;;0.00;;
33579;SDS011;19909;43.644;-79.438;2024-01-10T09:12:14;0.17;;;0.00;;
33579;SDS011;19909;43.644;-79.438;2024-01-10T09:14:40;0.30;;;0.00;;
33579;SDS011;19909;43.644;-79.438;2024-01-10T09:17:07;0.47;;;0.00;;
33579;SDS011;19909;43.644;-79.438;2024-01-10T09:19:34;0.10;;;0.10;;
33579;SDS011;19909;43.644;-79.438;2024-01-10T09:22:00;0.00;;;0.00;;
33579;SDS011;19909;43.644;-79.438;2024-01-10T09:24:26;0.10;;;0.00;;
33579;SDS011;19909;43.644;-79.438;2024-01-10T09:26:53;0.10;;;0.10;;
33579;SDS011;19909;43.644;-79.438;2024-01-10T09:29:19;0.00;;;0.00;;
33579;SDS011;19909;43.644;-79.438;2024-01-10T09:31:46;0.32;;;0.17;;
33579;SDS011;19909;43.644;-79.438;2024-01-10T09:34:12;0.00;;;0.00;;
33579;SDS011;19909;43.644;-79.438;2024-01-10T09:36:39;0.20;;;0.10;;
33579;SDS011;19909;43.644;-79.438;2024-01-10T09:39:05;0.20;;;0.10;;
33579;SDS011;19909;43.644;-79.438;2024-01-10T09:41:40;0.95;;;0.17;;
33579;SDS011;19909;43.644;-79.438;2024-01-10T09:44:18;0.28;;;0.00;;
33579;SDS011;19909;43.644;-79.438;2024-01-10T09:46:51;1.27;;;0.10;;
33579;SDS011;19909;43.644;-79.438;2024-01-10T09:49:18;0.05;;;0.03;;
33579;SDS011;19909;43.644;-79.438;2024-01-10T09:51:47;0.47;;;0.00;;
33579;SDS011;19909;43.644;-79.438;2024-01-10T09:54:15;0.63;;;0.00;;
33579;SDS011;19909;43.644;-79.438;2024-01-10T09:56:41;0.08;;;0.00;;
33579;SDS011;19909;43.644;-79.438;2024-01-10T09:59:10;0.10;;;0.10;;
33579;SDS011;19909;43.644;-79.438;2024-01-10T10:01:37;0.08;;;0.00;;
33579;SDS011;19909;43.644;-79.438;2024-01-10T10:04:09;0.00;;;0.00;;
33579;SDS011;19909;43.644;-79.438;2024-01-10T10:06:37;0.00;;;0.00;;
33579;SDS011;19909;43.644;-79.438;2024-01-10T10:09:03;0.00;;;0.00;;
33579;SDS011;19909;43.644;-79.438;2024-01-10T10:11:32;0.10;;;0.10;;
33579;SDS011;19909;43.644;-79.438;2024-01-10T10:16:25;0.08;;;0.05;;
33579;SDS011;19909;43.644;-79.438;2024-01-10T10:18:52;0.50;;;0.00;;
33579;SDS011;19909;43.644;-79.438;2024-01-10T10:21:23;0.00;;;0.00;;
33579;SDS011;19909;43.644;-79.438;2024-01-10T10:23:57;0.10;;;0.10;;
33579;SDS011;19909;43.644;-79.438;2024-01-10T10:26:26;0.22;;;0.20;;
33579;SDS011;19909;43.644;-79.438;2024-01-10T10:28:54;0.22;;;0.00;;
33579;SDS011;19909;43.644;-79.438;2024-01-10T10:31:21;0.63;;;0.15;;
33579;SDS011;19909;43.644;-79.438;2024-01-10T10:33:49;0.10;;;0.10;;
33579;SDS011;19909;43.644;-79.438;2024-01-10T10:36:20;0.10;;;0.00;;
33579;SDS011;19909;43.644;-79.438;2024-01-10T10:38:47;0.00;;;0.00;;
33579;SDS011;19909;43.644;-79.438;2024-01-10T10:41:14;0.10;;;0.10;;
33579;SDS011;19909;43.644;-79.438;2024-01-10T10:43:40;0.00;;;0.00;;
33579;SDS011;19909;43.644;-79.438;2024-01-10T10:46:11;0.00;;;0.00;;
33579;SDS011;19909;43.644;-79.438;2024-01-10T10:48:41;0.15;;;0.10;;
33579;SDS011;19909;43.644;-79.438;2024-01-10T10:51:09;0.20;;;0.00;;
33579;SDS011;19909;43.644;-79.438;2024-01-10T10:56:11;0.10;;;0.10;;
33579;SDS011;19909;43.644;-79.438;2024-01-10T10:58:47;0.08;;;0.05;;
33579;SDS011;19909;43.644;-79.438;2024-01-10T11:01:14;0.10;;;0.03;;
33579;SDS011;19909;43.644;-79.438;2024-01-10T11:03:41;0.30;;;0.10;;
33579;SDS011;19909;43.644;-79.438;2024-01-10T11:06:09;0.43;;;0.10;;
33579;SDS011;19909;43.644;-79.438;2024-01-10T11:08:46;1.42;;;0.10;;
33579;SDS011;19909;43.644;-79.438;2024-01-10T11:14:35;0.00;;;0.00;;
33579;SDS011;19909;43.644;-79.438;2024-01-10T11:17:25;0.00;;;0.00;;
33579;SDS011;19909;43.644;-79.438;2024-01-10T11:20:30;0.10;;;0.10;;
33579;SDS011;19909;43.644;-79.438;2024-01-10T11:25:58;0.10;;;0.03;;
33579;SDS011;19909;43.644;-79.438;2024-01-10T11:28:30;0.73;;;0.10;;
33579;SDS011;19909;43.644;-79.438;2024-01-10T11:30:57;0.10;;;0.10;;
33579;SDS011;19909;43.644;-79.438;2024-01-10T11:33:30;0.20;;;0.00;;
33579;SDS011;19909;43.644;-79.438;2024-01-10T11:39:02;0.30;;;0.10;;
33579;SDS011;19909;43.644;-79.438;2024-01-10T11:41:32;0.17;;;0.10;;
33579;SDS011;19909;43.644;-79.438;2024-01-10T11:46:37;0.32;;;0.20;;
33579;SDS011;19909;43.644;-79.438;2024-01-10T11:49:09;0.20;;;0.17;;
33579;SDS011;19909;43.644;-79.438;2024-01-10T11:54:05;0.17;;;0.10;;
33579;SDS011;19909;43.644;-79.438;2024-01-10T11:56:38;0.45;;;0.10;;
33579;SDS011;19909;43.644;-79.438;2024-01-10T11:59:09;0.30;;;0.20;;
33579;SDS011;19909;43.644;-79.438;2024-01-10T12:01:41;0.50;;;0.30;;
33579;SDS011;19909;43.644;-79.438;2024-01-10T12:04:09;0.90;;;0.32;;
33579;SDS011;19909;43.644;-79.438;2024-01-10T12:06:36;0.50;;;0.22;;
33579;SDS011;19909;43.644;-79.438;2024-01-10T12:09:03;0.30;;;0.20;;
33579;SDS011;19909;43.644;-79.438;2024-01-10T12:11:40;0.10;;;0.10;;
33579;SDS011;19909;43.644;-79.438;2024-01-10T12:14:08;0.30;;;0.10;;
33579;SDS011;19909;43.644;-79.438;2024-01-10T12:16:35;0.20;;;0.10;;
33579;SDS011;19909;43.644;-79.438;2024-01-10T12:19:02;0.10;;;0.03;;
33579;SDS011;19909;43.644;-79.438;2024-01-10T12:21:28;0.13;;;0.13;;
33579;SDS011;19909;43.644;-79.438;2024-01-10T12:23:55;0.40;;;0.20;;
33579;SDS011;19909;43.644;-79.438;2024-01-10T12:26:22;0.22;;;0.17;;
33579;SDS011;19909;43.644;-79.438;2024-01-10T12:31:15;0.52;;;0.28;;
33579;SDS011;19909;43.644;-79.438;2024-01-10T12:33:41;0.70;;;0.28;;
33579;SDS011;19909;43.644;-79.438;2024-01-10T12:36:10;0.25;;;0.10;;
33579;SDS011;19909;43.644;-79.438;2024-01-10T12:38:40;0.25;;;0.15;;
33579;SDS011;19909;43.644;-79.438;2024-01-10T12:41:07;0.25;;;0.20;;
33579;SDS011;19909;43.644;-79.438;2024-01-10T12:43:34;0.80;;;0.20;;
33579;SDS011;19909;43.644;-79.438;2024-01-10T12:46:05;0.47;;;0.20;;
33579;SDS011;19909;43.644;-79.438;2024-01-10T12:48:40;0.70;;;0.10;;
33579;SDS011;19909;43.644;-79.438;2024-01-10T12:51:07;0.32;;;0.20;;
33579;SDS011;19909;43.644;-79.438;2024-01-10T12:53:35;0.10;;;0.10;;
33579;SDS011;19909;43.644;-79.438;2024-01-10T12:56:03;0.08;;;0.08;;
33579;SDS011;19909;43.644;-79.438;2024-01-10T12:58:30;0.17;;;0.10;;
33579;SDS011;19909;43.644;-79.438;2024-01-10T13:00:56;0.20;;;0.10;;
33579;SDS011;19909;43.644;-79.438;2024-01-10T13:03:23;0.10;;;0.10;;
33579;SDS011;19909;43.644;-79.438;2024-01-10T13:05:50;0.30;;;0.10;;
33579;SDS011;19909;43.644;-79.438;2024-01-10T13:08:18;0.15;;;0.10;;
33579;SDS011;19909;43.644;-79.438;2024-01-10T13:10:45;0.13;;;0.10;;
33579;SDS011;19909;43.644;-79.438;2024-01-10T13:13:12;0.20;;;0.20;;
33579;SDS011;19909;43.644;-79.438;2024-01-10T13:15:40;0.20;;;0.10;;
33579;SDS011;19909;43.644;-79.438;2024-01-10T13:18:07;0.13;;;0.10;;
33579;SDS011;19909;43.644;-79.438;2024-01-10T13:20:35;0.28;;;0.20;;
33579;SDS011;19909;43.644;-79.438;2024-01-10T13:23:03;0.30;;;0.20;;
33579;SDS011;19909;43.644;-79.438;2024-01-10T13:25:30;1.40;;;0.20;;
33579;SDS011;19909;43.644;-79.438;2024-01-10T13:27:56;0.20;;;0.20;;
33579;SDS011;19909;43.644;-79.438;2024-01-10T13:30:23;0.10;;;0.10;;
33579;SDS011;19909;43.644;-79.438;2024-01-10T13:32:50;0.40;;;0.20;;
33579;SDS011;19909;43.644;-79.438;2024-01-10T13:35:16;0.10;;;0.10;;
33579;SDS011;19909;43.644;-79.438;2024-01-10T13:37:43;0.52;;;0.10;;
33579;SDS011;19909;43.644;-79.438;2024-01-10T13:40:10;0.10;;;0.10;;
33579;SDS011;19909;43.644;-79.438;2024-01-10T13:42:41;0.10;;;0.10;;
33579;SDS011;19909;43.644;-79.438;2024-01-10T13:45:09;0.28;;;0.20;;
33579;SDS011;19909;43.644;-79.438;2024-01-10T13:47:38;0.17;;;0.10;;
33579;SDS011;19909;43.644;-79.438;2024-01-10T13:50:05;0.20;;;0.10;;
33579;SDS011;19909;43.644;-79.438;2024-01-10T13:52:32;0.32;;;0.10;;
33579;SDS011;19909;43.644;-79.438;2024-01-10T13:54:59;0.10;;;0.10;;
33579;SDS011;19909;43.644;-79.438;2024-01-10T13:57:26;0.00;;;0.00;;
33579;SDS011;19909;43.644;-79.438;2024-01-10T13:59:53;0.10;;;0.00;;
33579;SDS011;19909;43.644;-79.438;2024-01-10T14:02:23;0.10;;;0.10;;
33579;SDS011;19909;43.644;-79.438;2024-01-10T14:04:52;0.35;;;0.13;;
33579;SDS011;19909;43.644;-79.438;2024-01-10T14:07:19;0.32;;;0.10;;
33579;SDS011;19909;43.644;-79.438;2024-01-10T14:09:46;0.08;;;0.08;;
33579;SDS011;19909;43.644;-79.438;2024-01-10T14:12:12;0.03;;;0.00;;
33579;SDS011;19909;43.644;-79.438;2024-01-10T14:14:38;1.65;;;0.10;;
33579;SDS011;19909;43.644;-79.438;2024-01-10T14:17:05;0.20;;;0.10;;
33579;SDS011;19909;43.644;-79.438;2024-01-10T14:19:31;0.38;;;0.10;;
33579;SDS011;19909;43.644;-79.438;2024-01-10T14:21:58;0.65;;;0.10;;
33579;SDS011;19909;43.644;-79.438;2024-01-10T14:24:25;0.17;;;0.13;;
33579;SDS011;19909;43.644;-79.438;2024-01-10T14:26:52;0.08;;;0.00;;
33579;SDS011;19909;43.644;-79.438;2024-01-10T14:29:18;0.15;;;0.00;;
33579;SDS011;19909;43.644;-79.438;2024-01-10T14:31:44;0.05;;;0.05;;
33579;SDS011;19909;43.644;-79.438;2024-01-10T14:34:11;0.65;;;0.10;;
33579;SDS011;19909;43.644;-79.438;2024-01-10T14:36:37;0.10;;;0.10;;
33579;SDS011;19909;43.644;-79.438;2024-01-10T14:39:04;0.10;;;0.10;;
33579;SDS011;19909;43.644;-79.438;2024-01-10T14:41:33;0.10;;;0.10;;
33579;SDS011;19909;43.644;-79.438;2024-01-10T14:44:02;0.00;;;0.00;;
33579;SDS011;19909;43.644;-79.438;2024-01-10T14:46:29;0.22;;;0.10;;
33579;SDS011;19909;43.644;-79.438;2024-01-10T14:48:55;0.63;;;0.10;;